createdAt,value
2023-04-15T00:08:30.705Z,0
2023-04-15T00:24:28.830Z,270
2023-04-15T00:35:06.888Z,45
2023-04-15T00:40:26.014Z,45
2023-04-15T00:51:04.169Z,45
2023-04-15T01:07:02.597Z,90
2023-04-15T01:17:41.800Z,0
2023-04-15T01:23:01.253Z,0
2023-04-15T01:33:40.096Z,315
2023-04-15T01:49:38.364Z,270
2023-04-15T02:00:16.747Z,180
2023-04-15T02:05:36.425Z,270
2023-04-15T02:16:14.370Z,315
2023-04-15T02:21:33.109Z,270
2023-04-15T02:32:11.417Z,270
2023-04-15T02:48:09.978Z,270
2023-04-15T02:58:48.932Z,225
2023-04-15T03:04:08.825Z,45
2023-04-15T03:14:47.558Z,135
2023-04-15T03:30:44.843Z,90
2023-04-15T03:41:23.798Z,45
2023-04-15T03:46:42.904Z,90
2023-04-15T03:57:21.257Z,90
2023-04-15T04:13:19.528Z,45
2023-04-15T04:23:57.934Z,0
2023-04-15T04:34:36.730Z,180
2023-04-15T04:50:33.983Z,90
2023-04-15T05:06:32.347Z,90
2023-04-15T05:17:11.480Z,90
2023-04-15T05:22:31.227Z,135
2023-04-15T05:33:09.545Z,180
2023-04-15T05:49:07.754Z,135
2023-04-15T05:59:46.766Z,135
2023-04-15T06:05:05.756Z,225
2023-04-15T06:15:44.395Z,225
2023-04-15T06:31:43.127Z,225
2023-04-15T06:42:21.318Z,225
2023-04-15T06:47:40.654Z,225
2023-04-15T06:58:19.709Z,225
2023-04-15T07:14:17.752Z,225
2023-04-15T07:30:16.011Z,225
2023-04-15T07:40:53.787Z,225
2023-04-15T07:56:51.122Z,225
2023-04-15T08:12:49.208Z,225
2023-04-15T08:23:27.617Z,225
2023-04-15T08:28:46.963Z,225
2023-04-15T08:39:24.216Z,225
2023-04-15T08:55:21.557Z,315
2023-04-15T09:05:59.511Z,270
2023-04-15T09:11:20.073Z,270
2023-04-15T09:21:58.755Z,270
2023-04-15T09:37:54.504Z,270
2023-04-15T09:48:32.965Z,315
2023-04-15T09:53:51.784Z,270
2023-04-15T10:04:31.265Z,270
2023-04-15T10:09:50.801Z,225
2023-04-15T10:20:28.780Z,270
2023-04-15T10:36:26.776Z,270
2023-04-15T10:47:04.871Z,270
2023-04-15T10:52:24.074Z,270
2023-04-15T11:03:02.442Z,315
2023-04-15T11:13:39.977Z,315
2023-04-15T11:24:18.180Z,270
2023-04-15T11:29:37.888Z,225
2023-04-15T11:40:17.118Z,270
2023-04-15T11:56:14.958Z,270
2023-04-15T12:12:12.570Z,315
2023-04-15T12:22:51.225Z,315
2023-04-15T12:38:48.009Z,270
2023-04-15T12:54:45.695Z,270
2023-04-15T13:05:24.156Z,270
2023-04-15T13:10:43.733Z,225
2023-04-15T13:21:30.427Z,270
2023-04-15T13:37:19.412Z,270
2023-04-15T13:47:58.099Z,270
2023-04-15T13:53:17.559Z,270
2023-04-15T14:03:56.302Z,270
2023-04-15T14:19:54.308Z,270
2023-04-15T14:30:32.565Z,225
2023-04-15T14:36:24.474Z,270
2023-04-15T14:41:44.095Z,270
2023-04-15T14:52:22.045Z,270
2023-04-15T15:08:20.042Z,270
2023-04-15T15:18:59.093Z,270
2023-04-15T15:24:18.037Z,270
2023-04-15T15:34:56.559Z,225
2023-04-15T15:50:54.300Z,225
2023-04-15T16:01:32.992Z,225
2023-04-15T16:06:52.057Z,270
2023-04-15T16:17:30.188Z,225
2023-04-15T16:33:27.623Z,270
2023-04-15T16:49:25.060Z,225
2023-04-15T17:00:03.721Z,225
2023-04-15T17:05:23.105Z,270
2023-04-15T17:16:01.818Z,270
2023-04-15T17:31:59.774Z,270
2023-04-15T17:42:38.990Z,270
2023-04-15T17:53:17.833Z,270
2023-04-15T18:09:15.735Z,270
2023-04-15T18:19:53.921Z,225
2023-04-15T18:25:13.700Z,270
2023-04-15T18:35:52.584Z,270
2023-04-15T18:51:50.669Z,270
2023-04-15T19:02:28.722Z,270
2023-04-15T19:07:47.498Z,270
2023-04-15T19:18:25.836Z,270
2023-04-15T19:34:23.641Z,225
2023-04-15T19:45:03.125Z,225
2023-04-15T19:50:22.752Z,225
2023-04-15T20:01:01.018Z,270
2023-04-15T20:06:20.054Z,270
2023-04-15T20:16:58.669Z,270
2023-04-15T20:32:56.679Z,270
2023-04-15T20:43:35.081Z,225
2023-04-15T20:48:53.870Z,270
2023-04-15T20:59:32.640Z,270
2023-04-15T21:15:30.883Z,270
2023-04-15T21:31:29.500Z,225
2023-04-15T21:42:07.942Z,225
2023-04-15T21:58:05.760Z,225
2023-04-15T22:14:02.536Z,270
2023-04-15T22:24:41.619Z,225
2023-04-15T22:30:00.807Z,270
2023-04-15T22:40:38.841Z,270
2023-04-15T22:56:36.482Z,225
2023-04-15T23:07:15.424Z,225
2023-04-15T23:23:13.753Z,225
2023-04-15T23:39:11.502Z,270
2023-04-15T23:49:50.363Z,225
2023-04-15T23:55:09.859Z,270
